Terminal Aerodrome Forecast
Issued by NWS

Home | Current Version | Previous Version | Text Only | Print | Product List | Glossary On
Versions: 1 2 3 4 5 6 7 8 9 10 11 12 13 14 15 16 17 18
000
FTUS42 KILM 021100 CCB
TAFCRE
TAF COR
KCRE 021157Z 0212/0312 26002KT 2SM BR OVC003
      TEMPO 0212/0214 4SM BR OVC002
     FM021400 29007KT 5SM BR SCT008 BKN020
      TEMPO 0214/0216 3SM BR OVC004
     FM022100 03007KT 5SM BR BKN015
     FM030600 04012KT 4SM BR VCSH OVC007=

USA.gov is the U.S. government's official web portal to all federal, state and local government web resources and services.